Aviation Digital Data Service (ADDS)

Output produced by METARs form (0851 UTC 27 June 2017)
found at http://www.aviationweather.gov/adds/metars/
 
METAR text: RJNK 270800Z 36009KT 9999 FEW030 SCT180 BKN270 22/17 Q1011
Conditions at: RJNK (KOMATSU (CIV/JAS, JP) observed 0800 UTC 27 June 2017
Temperature: 22.0°C (72°F)
Dewpoint: 17.0°C (63°F) [RH = 73%]
Pressure (altimeter): 29.85 inches Hg (1011.0 mb)
Winds: from the N (360 degrees) at 10 MPH (9 knots; 4.7 m/s)
Visibility: 6 or more miles (10+ km)
Ceiling: 27000 feet AGL
Clouds: few clouds at 3000 feet AGL
scattered clouds at 18000 feet AGL
broken clouds at 27000 feet AGL
Weather: no significant weather observed at this time